KMDD/MDD METAR and TAF weather

Enter ICAO airport designator
Station Type Date Time Source
KMDD METAR 2019/02/23 22:55 UTC NOAA

KMDD 232255Z AUTO 31015G26KT 10SM 18/M10 A3002 RMK AO2 T01801102


Station Type Date Time Source
KMDD Decoded METAR 2019/02/23 22:55 UTC NOAA

Midland, Midland Airpark, TX, United States (KMDD) 32-02-11N 102-06-03W
Feb 23, 2019 - 05:55 PM EST / 2019.02.23 2255 UTC
Wind: from the NW (310 degrees) at 17 MPH (15 KT) gusting to 30 MPH (26 KT):0
Visibility: 10 mile(s):0
Temperature: 64.4 F (18.0 C)
Dew Point: 13.6 F (-10.2 C)
Relative Humidity: 13%
Pressure (altimeter): 30.02 in. Hg (1016 hPa)
ob: KMDD 232255Z AUTO 31015G26KT 10SM 18/M10 A3002 RMK AO2 T01801102
cycle: 23

Station Type Date Time Source
KMDD TAF UTC NOAA

Error!


Example: see airport list